createdAt,value
2022-08-04T00:02:25.562Z,17.30
2022-08-04T00:04:52.595Z,17.30
2022-08-04T00:07:24.306Z,17.30
2022-08-04T00:10:11.530Z,17.30
2022-08-04T00:12:43.482Z,17.30
2022-08-04T00:15:15.022Z,17.20
2022-08-04T00:17:59.369Z,17.20
2022-08-04T00:20:31.050Z,17.10
2022-08-04T00:23:00.572Z,17.10
2022-08-04T00:25:28.691Z,17.10
2022-08-04T00:27:55.689Z,17.00
2022-08-04T00:30:23.065Z,17.00
2022-08-04T00:32:50.141Z,16.90
2022-08-04T00:35:17.590Z,16.90
2022-08-04T00:37:45.784Z,16.90
2022-08-04T00:40:15.949Z,16.80
2022-08-04T00:42:59.616Z,16.80
2022-08-04T00:46:15.210Z,16.80
2022-08-04T00:48:54.290Z,16.80
2022-08-04T00:51:27.008Z,16.70
2022-08-04T00:53:59.794Z,16.70
2022-08-04T00:56:43.984Z,16.70
2022-08-04T00:59:30.168Z,16.70
2022-08-04T01:02:35.128Z,16.60
2022-08-04T01:05:05.984Z,16.60
2022-08-04T01:08:09.754Z,16.60
2022-08-04T01:10:45.552Z,16.50
2022-08-04T01:13:35.100Z,16.40
2022-08-04T01:16:07.727Z,16.40
2022-08-04T01:18:53.945Z,16.40
2022-08-04T01:21:29.767Z,16.40
2022-08-04T01:24:58.207Z,16.40
2022-08-04T01:27:48.480Z,16.40
2022-08-04T01:30:16.606Z,16.40
2022-08-04T01:32:58.721Z,16.30
2022-08-04T01:35:46.828Z,16.30
2022-08-04T01:38:36.952Z,16.30
2022-08-04T01:41:08.687Z,16.30
2022-08-04T01:43:40.969Z,16.30
2022-08-04T01:46:11.636Z,16.30
2022-08-04T01:48:40.444Z,16.20
2022-08-04T01:51:09.377Z,16.20
2022-08-04T01:53:39.502Z,16.20
2022-08-04T01:56:08.813Z,16.20
2022-08-04T01:58:37.247Z,16.20
2022-08-04T02:01:11.853Z,16.20
2022-08-04T02:04:19.703Z,16.20
2022-08-04T02:06:42.762Z,16.20
2022-08-04T02:09:16.913Z,16.20
2022-08-04T02:11:53.746Z,16.30
2022-08-04T02:14:42.750Z,16.30
2022-08-04T02:17:22.991Z,16.30
2022-08-04T02:20:09.322Z,16.30
2022-08-04T02:22:47.660Z,16.30
2022-08-04T02:25:20.866Z,16.30
2022-08-04T02:28:26.444Z,16.30
2022-08-04T02:31:12.137Z,16.40
2022-08-04T02:33:44.030Z,16.40
2022-08-04T02:36:16.723Z,16.30
2022-08-04T02:39:04.792Z,16.30
2022-08-04T02:41:33.412Z,16.20
2022-08-04T02:44:05.623Z,16.20
2022-08-04T02:46:34.613Z,16.20
2022-08-04T02:49:06.773Z,16.20
2022-08-04T02:51:42.666Z,16.10
2022-08-04T02:54:10.155Z,16.10
2022-08-04T02:56:39.471Z,16.10
2022-08-04T02:59:08.773Z,16.10
2022-08-04T03:01:37.281Z,16.10
2022-08-04T03:04:27.529Z,16.20
2022-08-04T03:06:57.498Z,16.30
2022-08-04T03:09:35.310Z,16.30
2022-08-04T03:12:21.346Z,16.30
2022-08-04T03:15:06.201Z,16.30
2022-08-04T03:18:05.940Z,16.40
2022-08-04T03:21:13.754Z,16.40
2022-08-04T03:24:02.482Z,16.40
2022-08-04T03:26:51.018Z,16.40
2022-08-04T03:29:36.378Z,16.40
2022-08-04T03:32:39.369Z,16.40
2022-08-04T03:35:39.955Z,16.40
2022-08-04T03:38:36.798Z,16.50
2022-08-04T03:41:55.119Z,16.50
2022-08-04T03:44:41.441Z,16.70
2022-08-04T03:47:32.862Z,16.70
2022-08-04T03:50:42.005Z,16.80
2022-08-04T03:53:20.734Z,16.90
2022-08-04T03:55:56.075Z,17.00
2022-08-04T03:58:42.018Z,17.10
2022-08-04T04:01:27.757Z,17.10
2022-08-04T04:04:33.264Z,17.20
2022-08-04T04:07:12.543Z,17.40
2022-08-04T04:10:06.270Z,17.50
2022-08-04T04:13:18.940Z,17.50
2022-08-04T04:15:57.954Z,17.60
2022-08-04T04:18:32.497Z,17.70
2022-08-04T04:21:36.176Z,17.80
2022-08-04T04:24:21.221Z,18.00
2022-08-04T04:27:01.518Z,18.10
2022-08-04T04:29:37.251Z,18.20
2022-08-04T04:32:39.036Z,18.30
2022-08-04T04:35:32.988Z,18.40
2022-08-04T04:38:25.267Z,18.60
2022-08-04T04:41:06.629Z,18.60
2022-08-04T04:43:51.106Z,18.70
2022-08-04T04:46:37.809Z,18.80
2022-08-04T04:49:12.163Z,18.90
2022-08-04T04:51:54.308Z,19.10
2022-08-04T04:54:35.961Z,19.20
2022-08-04T04:57:54.541Z,19.30
2022-08-04T05:00:13.842Z,19.40
2022-08-04T05:03:03.930Z,19.60
2022-08-04T05:05:48.006Z,19.70
2022-08-04T05:08:46.340Z,19.80
2022-08-04T05:14:33.016Z,19.90
2022-08-04T05:15:02.100Z,20.00
2022-08-04T05:17:36.834Z,20.10
2022-08-04T05:20:14.928Z,20.20
2022-08-04T05:23:03.749Z,20.40
2022-08-04T05:25:35.470Z,20.50
2022-08-04T05:28:12.375Z,20.60
2022-08-04T05:30:48.527Z,20.80
2022-08-04T05:33:21.047Z,21.00
2022-08-04T05:36:21.578Z,21.00
2022-08-04T05:38:41.854Z,21.20
2022-08-04T05:41:10.301Z,21.30
2022-08-04T05:43:43.797Z,21.50
2022-08-04T05:46:12.737Z,21.60
2022-08-04T05:48:41.349Z,21.80
2022-08-04T05:51:10.920Z,21.80
2022-08-04T05:53:39.354Z,21.90
2022-08-04T05:56:07.524Z,22.00
2022-08-04T05:58:35.883Z,22.10
2022-08-04T06:01:03.962Z,22.20
2022-08-04T06:03:32.996Z,22.50
2022-08-04T06:06:00.842Z,22.50
2022-08-04T06:08:29.897Z,22.70
2022-08-04T06:10:59.765Z,22.90
2022-08-04T06:13:48.284Z,23.00
2022-08-04T06:16:30.108Z,23.30
2022-08-04T06:20:00.847Z,23.60
2022-08-04T06:21:54.677Z,23.80
2022-08-04T06:24:26.295Z,23.80
2022-08-04T06:26:54.017Z,23.50
2022-08-04T06:29:27.054Z,23.30
2022-08-04T06:32:26.884Z,23.20
2022-08-04T06:34:46.264Z,23.30
2022-08-04T06:37:24.312Z,23.60
2022-08-04T06:40:29.492Z,23.90
2022-08-04T06:42:52.953Z,24.30
2022-08-04T06:45:20.914Z,24.50
2022-08-04T06:47:49.171Z,24.80
2022-08-04T06:51:27.652Z,25.00
2022-08-04T06:53:04.498Z,25.30
2022-08-04T06:55:33.655Z,25.50
2022-08-04T06:58:03.258Z,25.90
2022-08-04T07:00:50.787Z,26.20
2022-08-04T07:04:12.484Z,26.20
2022-08-04T07:06:55.126Z,26.10
2022-08-04T07:09:37.150Z,26.20
2022-08-04T07:12:21.515Z,26.40
2022-08-04T07:15:23.420Z,26.50
2022-08-04T07:18:05.372Z,26.70
2022-08-04T07:20:48.239Z,26.90
2022-08-04T07:23:30.735Z,27.10
2022-08-04T07:26:32.570Z,27.50
2022-08-04T07:29:14.907Z,27.80
2022-08-04T07:31:58.439Z,27.90
2022-08-04T07:34:41.755Z,27.90
2022-08-04T07:37:44.237Z,27.90
2022-08-04T07:40:26.210Z,27.60
2022-08-04T07:43:09.365Z,27.80
2022-08-04T07:45:51.302Z,28.00
2022-08-04T07:48:53.081Z,28.50
2022-08-04T07:51:36.952Z,28.70
2022-08-04T07:54:22.914Z,28.70
2022-08-04T07:57:04.991Z,29.00
2022-08-04T08:00:12.230Z,29.00
2022-08-04T08:02:55.643Z,29.10
2022-08-04T08:06:16.922Z,29.00
2022-08-04T08:08:41.613Z,28.70
2022-08-04T08:11:09.454Z,28.50
2022-08-04T08:13:37.513Z,28.80
2022-08-04T08:16:05.696Z,28.80
2022-08-04T08:18:33.027Z,29.00
2022-08-04T08:21:00.214Z,29.10
2022-08-04T08:23:29.611Z,28.80
2022-08-04T08:25:57.552Z,28.90
2022-08-04T08:28:24.894Z,28.90
2022-08-04T08:30:53.009Z,28.90
2022-08-04T08:33:22.590Z,28.90
2022-08-04T08:36:28.749Z,29.10
2022-08-04T08:39:24.713Z,29.20
2022-08-04T08:42:26.978Z,29.40
2022-08-04T08:45:36.254Z,29.80
2022-08-04T08:49:02.615Z,30.20
2022-08-04T08:52:10.731Z,29.70
2022-08-04T08:55:35.053Z,29.60
2022-08-04T08:58:38.626Z,29.30
2022-08-04T09:01:24.254Z,29.50
2022-08-04T09:04:23.783Z,29.70
2022-08-04T09:07:10.369Z,30.00
2022-08-04T09:09:53.243Z,29.90
2022-08-04T09:12:44.730Z,29.70
2022-08-04T09:15:14.291Z,29.60
2022-08-04T09:18:09.773Z,29.80
2022-08-04T09:21:04.757Z,29.80
2022-08-04T09:23:39.935Z,29.70
2022-08-04T09:26:19.110Z,29.80
2022-08-04T09:28:54.017Z,29.90
2022-08-04T09:31:53.012Z,30.10
2022-08-04T09:35:06.056Z,30.00
2022-08-04T09:38:17.681Z,29.70
2022-08-04T09:40:59.014Z,29.70
2022-08-04T09:43:59.360Z,29.90
2022-08-04T09:46:39.210Z,30.10
2022-08-04T09:49:27.727Z,30.30
2022-08-04T09:52:16.850Z,30.60
2022-08-04T09:55:02.427Z,30.60
2022-08-04T09:57:32.090Z,30.40
2022-08-04T10:00:09.443Z,30.60
2022-08-04T10:02:40.711Z,30.70
2022-08-04T10:05:14.414Z,30.50
2022-08-04T10:08:15.486Z,30.40
2022-08-04T10:11:21.079Z,30.70
2022-08-04T10:13:50.536Z,30.60
2022-08-04T10:16:58.688Z,30.60
2022-08-04T10:19:32.481Z,30.80
2022-08-04T10:22:28.302Z,31.20
2022-08-04T10:26:03.372Z,31.20
2022-08-04T10:28:09.030Z,31.30
2022-08-04T10:30:39.223Z,31.20
2022-08-04T10:33:16.258Z,31.20
2022-08-04T10:35:50.530Z,31.00
2022-08-04T10:38:33.436Z,31.00
2022-08-04T10:41:11.017Z,31.20
2022-08-04T10:43:56.835Z,31.20
2022-08-04T10:46:30.244Z,31.20
2022-08-04T10:49:07.861Z,31.50
2022-08-04T10:52:11.543Z,31.70
2022-08-04T10:54:53.763Z,31.50
2022-08-04T10:57:30.708Z,31.50
2022-08-04T11:00:14.719Z,31.50
2022-08-04T11:03:15.639Z,31.60
2022-08-04T11:05:55.035Z,31.90
2022-08-04T11:08:25.588Z,32.00
2022-08-04T11:11:12.103Z,32.10
2022-08-04T11:13:57.656Z,32.00
2022-08-04T11:16:52.089Z,32.00
2022-08-04T11:19:53.526Z,32.00
2022-08-04T11:22:23.637Z,31.80
2022-08-04T11:24:54.138Z,31.30
2022-08-04T11:27:53.913Z,31.10
2022-08-04T11:30:21.250Z,30.90
2022-08-04T11:33:07.857Z,31.10
2022-08-04T11:36:02.800Z,31.00
2022-08-04T11:38:38.447Z,31.40
2022-08-04T11:41:10.994Z,31.30
2022-08-04T11:44:00.670Z,31.50
2022-08-04T11:46:54.158Z,31.70
2022-08-04T11:50:08.271Z,31.80
2022-08-04T11:52:53.801Z,31.60
2022-08-04T11:56:09.475Z,31.70
2022-08-04T11:58:41.172Z,31.70
2022-08-04T12:01:55.070Z,32.00
2022-08-04T12:04:56.150Z,32.00
2022-08-04T12:07:31.600Z,32.20
2022-08-04T12:10:40.889Z,32.30
2022-08-04T12:13:28.062Z,31.80
2022-08-04T12:16:32.420Z,31.70
2022-08-04T12:19:10.081Z,31.70
2022-08-04T12:21:55.694Z,31.80
2022-08-04T12:24:41.542Z,31.80
2022-08-04T12:27:16.161Z,31.80
2022-08-04T12:30:59.255Z,31.80
2022-08-04T12:32:53.708Z,31.70
2022-08-04T12:35:27.533Z,31.70
2022-08-04T12:38:04.997Z,31.90
2022-08-04T12:40:39.343Z,31.80
2022-08-04T12:43:28.635Z,31.70
2022-08-04T12:46:02.624Z,31.60
2022-08-04T12:48:32.325Z,31.80
2022-08-04T12:51:00.830Z,32.00
2022-08-04T12:53:34.425Z,31.90
2022-08-04T12:56:26.520Z,31.80
2022-08-04T12:59:00.685Z,31.70
2022-08-04T13:02:11.310Z,31.80
2022-08-04T13:04:20.237Z,32.00
2022-08-04T13:07:21.102Z,32.10
2022-08-04T13:09:49.154Z,31.90
2022-08-04T13:12:24.882Z,32.10
2022-08-04T13:15:20.564Z,32.00
2022-08-04T13:17:57.264Z,32.00
2022-08-04T13:20:35.009Z,32.00
2022-08-04T13:23:11.098Z,31.60
2022-08-04T13:26:42.975Z,31.40
2022-08-04T13:28:40.915Z,31.50
2022-08-04T13:31:16.714Z,31.00
2022-08-04T13:33:47.453Z,31.20
2022-08-04T13:36:16.571Z,31.30
2022-08-04T13:38:55.360Z,31.40
2022-08-04T13:41:27.659Z,31.60
2022-08-04T13:44:17.661Z,31.80
2022-08-04T13:46:57.774Z,31.70
2022-08-04T13:49:42.537Z,31.80
2022-08-04T13:52:12.140Z,31.50
2022-08-04T13:54:44.776Z,31.30
2022-08-04T13:57:23.078Z,31.30
2022-08-04T13:59:57.383Z,31.50
2022-08-04T14:02:30.978Z,31.50
2022-08-04T14:05:05.129Z,31.30
2022-08-04T14:07:32.928Z,31.20
2022-08-04T14:10:02.733Z,31.00
2022-08-04T14:12:45.789Z,31.00
2022-08-04T14:16:01.977Z,31.00
2022-08-04T14:18:32.245Z,31.20
2022-08-04T14:21:11.896Z,31.40
2022-08-04T14:23:49.681Z,31.50
2022-08-04T14:26:32.860Z,31.50
2022-08-04T14:29:27.759Z,31.30
2022-08-04T14:32:10.697Z,31.20
2022-08-04T14:34:44.841Z,31.20
2022-08-04T14:37:20.351Z,31.30
2022-08-04T14:40:17.997Z,31.30
2022-08-04T14:42:41.893Z,31.20
2022-08-04T14:45:09.516Z,31.30
2022-08-04T14:47:39.563Z,31.30
2022-08-04T14:50:09.762Z,31.20
2022-08-04T14:52:38.693Z,31.20
2022-08-04T14:55:25.299Z,31.20
2022-08-04T14:58:33.956Z,31.20
2022-08-04T15:00:39.986Z,31.20
2022-08-04T15:03:08.977Z,31.00
2022-08-04T15:06:02.351Z,31.00
2022-08-04T15:08:29.194Z,30.90
2022-08-04T15:11:03.219Z,30.90
2022-08-04T15:13:33.545Z,31.00
2022-08-04T15:16:06.702Z,31.10
2022-08-04T15:18:35.958Z,31.10
2022-08-04T15:21:04.931Z,31.00
2022-08-04T15:23:38.722Z,30.70
2022-08-04T15:26:12.968Z,30.40
2022-08-04T15:28:42.289Z,30.40
2022-08-04T15:32:05.553Z,30.50
2022-08-04T15:33:58.170Z,30.40
2022-08-04T15:36:56.947Z,30.30
2022-08-04T15:39:58.559Z,30.20
2022-08-04T15:43:08.973Z,30.10
2022-08-04T15:46:04.084Z,30.10
2022-08-04T15:48:45.356Z,30.10
2022-08-04T15:51:14.715Z,30.00
2022-08-04T15:54:01.198Z,30.00
2022-08-04T15:56:29.790Z,30.00
2022-08-04T15:58:57.195Z,29.90
2022-08-04T16:01:24.891Z,29.80
2022-08-04T16:04:01.108Z,29.70
2022-08-04T16:06:29.044Z,29.60
2022-08-04T16:09:02.275Z,29.60
2022-08-04T16:11:31.628Z,29.60
2022-08-04T16:13:59.473Z,29.50
2022-08-04T16:16:42.227Z,29.40
2022-08-04T16:19:35.630Z,29.30
2022-08-04T16:22:04.529Z,29.20
2022-08-04T16:24:42.618Z,29.10
2022-08-04T16:27:13.781Z,29.00
2022-08-04T16:29:42.871Z,29.00
2022-08-04T16:32:20.939Z,28.90
2022-08-04T16:35:04.046Z,28.80
2022-08-04T16:37:37.725Z,28.80
2022-08-04T16:40:29.843Z,28.70
2022-08-04T16:43:05.259Z,28.70
2022-08-04T16:46:01.467Z,28.60
2022-08-04T16:48:34.352Z,28.50
2022-08-04T16:51:15.249Z,28.30
2022-08-04T16:53:52.513Z,28.20
2022-08-04T16:56:34.747Z,28.00
2022-08-04T16:59:11.792Z,28.00
2022-08-04T17:01:49.935Z,28.10
2022-08-04T17:04:17.526Z,28.10
2022-08-04T17:06:46.594Z,27.90
2022-08-04T17:09:18.798Z,27.90
2022-08-04T17:11:47.566Z,27.90
2022-08-04T17:14:28.165Z,27.90
2022-08-04T17:16:58.923Z,27.80
2022-08-04T17:19:26.996Z,27.60
2022-08-04T17:22:05.959Z,27.40
2022-08-04T17:24:37.965Z,27.30
2022-08-04T17:28:10.005Z,27.30
2022-08-04T17:29:53.503Z,27.20
2022-08-04T17:32:22.315Z,27.20
2022-08-04T17:35:00.482Z,27.10
2022-08-04T17:37:41.306Z,27.10
2022-08-04T17:40:18.635Z,27.00
2022-08-04T17:44:03.874Z,26.90
2022-08-04T17:46:28.954Z,26.80
2022-08-04T17:48:59.645Z,26.70
2022-08-04T17:52:04.386Z,26.50
2022-08-04T17:54:29.760Z,26.40
2022-08-04T17:57:30.209Z,26.30
2022-08-04T17:59:59.516Z,26.10
2022-08-04T18:02:32.900Z,26.10
2022-08-04T18:05:07.011Z,26.20
2022-08-04T18:08:45.990Z,26.10
2022-08-04T18:10:51.692Z,25.90
2022-08-04T18:13:27.185Z,25.70
2022-08-04T18:16:02.387Z,25.50
2022-08-04T18:18:29.967Z,25.40
2022-08-04T18:20:59.673Z,25.40
2022-08-04T18:23:31.765Z,25.20
2022-08-04T18:26:01.689Z,24.90
2022-08-04T18:28:30.838Z,24.70
2022-08-04T18:31:00.926Z,24.30
2022-08-04T18:33:40.807Z,24.00
2022-08-04T18:36:32.614Z,23.60
2022-08-04T18:38:59.582Z,23.20
2022-08-04T18:42:01.624Z,23.00
2022-08-04T18:44:29.212Z,22.80
2022-08-04T18:46:57.118Z,22.70
2022-08-04T18:51:00.348Z,22.60
2022-08-04T18:52:15.179Z,22.60
2022-08-04T18:54:43.110Z,22.70
2022-08-04T18:57:32.120Z,22.60
2022-08-04T18:59:58.082Z,22.50
2022-08-04T19:02:27.546Z,22.40
2022-08-04T19:04:54.539Z,22.30
2022-08-04T19:07:29.289Z,22.20
2022-08-04T19:09:58.467Z,22.00
2022-08-04T19:12:28.457Z,21.90
2022-08-04T19:14:58.764Z,21.70
2022-08-04T19:17:53.443Z,21.60
2022-08-04T19:20:25.688Z,21.60
2022-08-04T19:24:27.417Z,21.60
2022-08-04T19:26:02.610Z,21.70
2022-08-04T19:28:34.076Z,21.70
2022-08-04T19:31:01.787Z,21.70
2022-08-04T19:33:58.029Z,21.50
2022-08-04T19:36:17.291Z,21.50
2022-08-04T19:38:45.157Z,21.60
2022-08-04T19:41:14.517Z,21.50
2022-08-04T19:43:43.858Z,21.50
2022-08-04T19:46:12.288Z,21.40
2022-08-04T19:48:40.342Z,21.30
2022-08-04T19:51:07.954Z,21.30
2022-08-04T19:56:22.333Z,21.00
2022-08-04T19:58:52.689Z,20.90
2022-08-04T20:01:31.204Z,20.90
2022-08-04T20:04:08.313Z,20.80
2022-08-04T20:06:38.013Z,20.80
2022-08-04T20:09:25.743Z,20.70
2022-08-04T20:11:52.129Z,20.70
2022-08-04T20:14:26.571Z,20.60
2022-08-04T20:17:01.102Z,20.50
2022-08-04T20:19:28.263Z,20.50
2022-08-04T20:21:57.988Z,20.40
2022-08-04T20:24:40.743Z,20.40
2022-08-04T20:27:15.379Z,20.40
2022-08-04T20:29:49.319Z,20.30
2022-08-04T20:32:22.840Z,20.20
2022-08-04T20:34:51.982Z,20.10
2022-08-04T20:37:23.017Z,20.00
2022-08-04T20:39:58.165Z,20.00
2022-08-04T20:42:27.158Z,20.00
2022-08-04T20:44:55.924Z,19.90
2022-08-04T20:47:23.255Z,19.80
2022-08-04T20:49:50.500Z,19.70
2022-08-04T20:52:20.555Z,19.60
2022-08-04T20:54:49.072Z,19.50
2022-08-04T20:57:47.898Z,19.40
2022-08-04T21:00:10.615Z,19.50
2022-08-04T21:02:41.459Z,19.40
2022-08-04T21:05:09.438Z,19.50
2022-08-04T21:07:43.817Z,19.50
2022-08-04T21:10:11.263Z,19.40
2022-08-04T21:12:38.297Z,19.30
2022-08-04T21:15:13.641Z,19.20
2022-08-04T21:17:58.457Z,19.10
2022-08-04T21:20:32.144Z,18.90
2022-08-04T21:23:02.079Z,18.80
2022-08-04T21:25:30.823Z,18.70
2022-08-04T21:27:58.706Z,18.60
2022-08-04T21:30:26.911Z,18.50
2022-08-04T21:32:54.885Z,18.50
2022-08-04T21:35:36.801Z,18.40
2022-08-04T21:38:17.496Z,18.30
2022-08-04T21:40:55.611Z,18.20
2022-08-04T21:43:27.398Z,18.30
2022-08-04T21:45:56.574Z,18.20
2022-08-04T21:48:27.311Z,18.20
2022-08-04T21:50:54.745Z,18.20
2022-08-04T21:53:22.361Z,18.30
2022-08-04T21:56:06.868Z,18.30
2022-08-04T21:58:39.992Z,18.30
2022-08-04T22:01:21.743Z,18.20
2022-08-04T22:04:00.027Z,18.10
2022-08-04T22:06:28.462Z,18.00
2022-08-04T22:08:57.017Z,18.00
2022-08-04T22:11:48.235Z,18.00
2022-08-04T22:14:27.315Z,18.00
2022-08-04T22:16:57.645Z,18.00
2022-08-04T22:19:40.620Z,18.00
2022-08-04T22:22:24.390Z,18.00
2022-08-04T22:24:54.323Z,18.00
2022-08-04T22:27:40.008Z,18.00
2022-08-04T22:30:16.880Z,18.00
2022-08-04T22:32:48.235Z,17.90
2022-08-04T22:35:36.353Z,17.90
2022-08-04T22:38:27.867Z,17.80
2022-08-04T22:40:58.235Z,17.80
2022-08-04T22:43:33.831Z,17.80
2022-08-04T22:46:05.082Z,17.70
2022-08-04T22:48:35.228Z,17.80
2022-08-04T22:51:04.280Z,17.70
2022-08-04T22:53:31.491Z,17.70
2022-08-04T22:56:07.434Z,17.70
2022-08-04T22:58:45.145Z,17.70
2022-08-04T23:01:17.548Z,17.60
2022-08-04T23:03:51.185Z,17.60
2022-08-04T23:06:25.420Z,17.50
2022-08-04T23:08:53.240Z,17.50
2022-08-04T23:11:20.489Z,17.40
2022-08-04T23:13:49.064Z,17.30
2022-08-04T23:16:17.121Z,17.30
2022-08-04T23:18:45.341Z,17.20
2022-08-04T23:21:16.277Z,17.10
2022-08-04T23:23:55.210Z,17.20
2022-08-04T23:26:28.369Z,17.10
2022-08-04T23:28:56.531Z,17.10
2022-08-04T23:31:24.321Z,17.10
2022-08-04T23:33:52.370Z,17.10
2022-08-04T23:36:29.628Z,17.10
2022-08-04T23:39:04.089Z,17.10
2022-08-04T23:41:55.255Z,17.10
2022-08-04T23:44:25.816Z,17.10
2022-08-04T23:47:01.101Z,17.00
2022-08-04T23:49:43.305Z,17.00
2022-08-04T23:52:27.806Z,16.90
2022-08-04T23:55:00.720Z,16.80
2022-08-04T23:57:31.327Z,16.80
